Time;durP1;ratioP1;P1;durP2;ratioP2;P2;SDS_P1;SDS_P2;PMS_P1;PMS_P2;Temp;Humidity;BMP_temperature;BMP_pressure;BME280_temperature;BME280_humidity;BME280_pressure;Samples;Min_cycle;Max_cycle;Signal;HPM_P1;HPM_P2
2023/08/06 00:00:17;;;;;;;10.85;7.78;;;14.50;99.90;;;;;;5079907;28;20067;-60
2023/08/06 00:02:43;;;;;;;11.32;7.90;;;14.60;99.90;;;;;;5082490;28;20041;-60
2023/08/06 00:05:08;;;;;;;13.05;7.68;;;14.60;99.90;;;;;;5079799;28;20409;-60
2023/08/06 00:07:34;;;;;;;11.60;6.85;;;14.50;99.90;;;;;;5081595;28;20519;-59
2023/08/06 00:10:00;;;;;;;14.32;7.80;;;14.40;99.90;;;;;;5080339;28;20118;-60
2023/08/06 00:12:25;;;;;;;10.23;7.22;;;14.50;99.90;;;;;;5081078;28;20064;-61
2023/08/06 00:14:52;;;;;;;11.70;7.85;;;14.50;99.90;;;;;;5081654;28;20040;-60
2023/08/06 00:17:18;;;;;;;12.45;7.80;;;14.40;99.90;;;;;;5079573;28;20049;-60
2023/08/06 00:19:43;;;;;;;10.15;6.90;;;14.50;99.90;;;;;;5081932;28;20131;-60
2023/08/06 00:22:09;;;;;;;12.15;7.97;;;14.50;99.90;;;;;;5079394;28;20071;-60
2023/08/06 00:24:35;;;;;;;15.07;7.93;;;14.60;99.90;;;;;;5081714;28;20071;-60
2023/08/06 00:27:01;;;;;;;13.63;7.53;;;14.60;99.90;;;;;;5080007;28;20067;-59
2023/08/06 00:29:27;;;;;;;12.43;7.63;;;14.60;99.90;;;;;;5080898;28;20040;-60
2023/08/06 00:31:53;;;;;;;10.77;7.63;;;14.60;99.90;;;;;;5081058;28;20047;-60
2023/08/06 00:34:19;;;;;;;10.70;7.70;;;14.60;99.90;;;;;;5079693;28;20053;-60
2023/08/06 00:36:44;;;;;;;11.63;7.15;;;14.60;99.90;;;;;;5081547;28;20055;-60
2023/08/06 00:39:11;;;;;;;10.85;7.60;;;14.60;99.90;;;;;;5079357;28;20040;-60
2023/08/06 00:41:37;;;;;;;11.75;7.72;;;14.50;99.90;;;;;;5081147;28;20079;-60
2023/08/06 00:44:03;;;;;;;12.70;7.80;;;14.60;99.90;;;;;;5079530;28;20036;-60
2023/08/06 00:46:29;;;;;;;10.85;7.45;;;14.50;99.90;;;;;;5080899;28;20604;-60
2023/08/06 00:48:56;;;;;;;10.95;7.50;;;14.50;99.90;;;;;;5080464;28;20036;-60
2023/08/06 00:51:22;;;;;;;11.02;6.68;;;14.60;99.90;;;;;;5079504;28;20052;-60
2023/08/06 00:53:49;;;;;;;12.93;7.05;;;14.60;99.90;;;;;;5081220;28;20045;-60
2023/08/06 00:56:15;;;;;;;13.23;7.28;;;14.50;99.90;;;;;;5066226;28;20044;-61
2023/08/06 00:58:41;;;;;;;10.95;6.47;;;14.50;99.90;;;;;;5101508;28;20110;-60
2023/08/06 01:01:07;;;;;;;12.30;6.88;;;14.50;99.90;;;;;;5099595;28;20040;-60
2023/08/06 01:03:33;;;;;;;10.52;6.85;;;14.60;99.90;;;;;;5099704;28;20052;-61
2023/08/06 01:05:59;;;;;;;9.85;6.53;;;14.50;99.90;;;;;;5100533;28;20513;-61
2023/08/06 01:08:56;;;;;;;10.23;6.57;;;14.50;99.90;;;;;;5099721;28;20052;-61
2023/08/06 01:11:42;;;;;;;10.57;6.90;;;14.60;99.90;;;;;;5101069;28;20048;-61
2023/08/06 01:14:11;;;;;;;11.63;6.70;;;14.60;99.90;;;;;;5080881;28;20062;-59
2023/08/06 01:16:39;;;;;;;12.63;7.15;;;14.50;99.90;;;;;;5100440;28;20055;-60
2023/08/06 01:19:15;;;;;;;12.30;6.38;;;14.60;99.90;;;;;;5100328;28;20048;-59
2023/08/06 01:21:40;;;;;;;10.15;6.20;;;14.50;99.90;;;;;;5098973;28;20048;-60
2023/08/06 01:24:06;;;;;;;10.70;7.07;;;14.60;99.90;;;;;;5100612;28;20051;-60
2023/08/06 01:26:51;;;;;;;11.48;6.50;;;14.60;99.90;;;;;;5098770;28;20036;-60
2023/08/06 01:29:30;;;;;;;13.63;7.50;;;14.50;99.90;;;;;;5100208;28;20047;-60
2023/08/06 01:31:57;;;;;;;10.35;6.80;;;14.60;99.90;;;;;;5100423;28;20036;-60
2023/08/06 01:34:30;;;;;;;12.02;7.20;;;14.60;99.90;;;;;;5080597;28;20044;-60
2023/08/06 01:36:57;;;;;;;10.50;7.07;;;14.60;99.90;;;;;;5100606;28;20525;-61
2023/08/06 01:39:23;;;;;;;12.23;7.03;;;14.60;99.90;;;;;;5098734;28;20094;-60
2023/08/06 01:41:49;;;;;;;10.82;7.15;;;14.50;99.90;;;;;;5099838;28;20056;-61
2023/08/06 01:44:15;;;;;;;10.93;7.65;;;14.50;99.90;;;;;;5099145;28;20051;-60
2023/08/06 01:46:41;;;;;;;12.18;7.63;;;14.50;99.90;;;;;;5081287;28;20112;-60
2023/08/06 01:49:07;;;;;;;10.60;6.63;;;14.60;99.90;;;;;;5099671;28;20036;-59
2023/08/06 01:51:33;;;;;;;11.05;7.30;;;14.50;99.90;;;;;;5098255;28;20044;-60
2023/08/06 01:53:59;;;;;;;12.15;6.65;;;14.50;99.90;;;;;;5082127;28;20123;-60
2023/08/06 01:56:24;;;;;;;11.85;7.60;;;14.50;99.90;;;;;;5091707;28;20499;-60
2023/08/06 01:58:50;;;;;;;9.50;6.50;;;14.40;99.90;;;;;;5079577;28;20040;-59
2023/08/06 02:01:15;;;;;;;14.05;7.32;;;14.50;99.90;;;;;;5078561;28;20036;-60
2023/08/06 02:03:41;;;;;;;13.48;6.97;;;14.50;99.90;;;;;;5079043;28;20036;-60
2023/08/06 02:06:07;;;;;;;11.10;7.65;;;14.50;99.90;;;;;;5079551;28;20041;-59
2023/08/06 02:08:32;;;;;;;14.30;8.40;;;14.50;99.90;;;;;;5077524;28;20053;-60
2023/08/06 02:10:59;;;;;;;13.80;8.73;;;14.50;99.90;;;;;;5079809;28;20049;-60
2023/08/06 02:13:24;;;;;;;12.77;7.82;;;14.50;99.90;;;;;;5059247;28;20078;-60
2023/08/06 02:15:50;;;;;;;11.73;7.70;;;14.60;99.90;;;;;;5079370;28;20029;-60
2023/08/06 02:18:16;;;;;;;12.10;8.63;;;14.60;99.90;;;;;;5077596;28;20056;-60
2023/08/06 02:20:42;;;;;;;11.93;7.97;;;14.60;99.90;;;;;;5078659;28;20507;-59
2023/08/06 02:23:08;;;;;;;12.70;8.27;;;14.50;99.90;;;;;;5078864;28;20033;-59
2023/08/06 02:25:34;;;;;;;12.48;8.77;;;14.50;99.90;;;;;;5059536;28;20044;-60
2023/08/06 02:28:00;;;;;;;11.77;8.55;;;14.50;99.90;;;;;;5079587;28;20037;-60
2023/08/06 02:30:26;;;;;;;12.52;8.35;;;14.50;99.90;;;;;;5076770;28;20131;-60
2023/08/06 02:32:52;;;;;;;13.27;8.45;;;14.50;99.90;;;;;;5079078;28;20149;-60
2023/08/06 02:35:18;;;;;;;12.98;8.73;;;14.60;99.90;;;;;;5077294;28;20048;-60
2023/08/06 02:37:43;;;;;;;13.05;8.77;;;14.60;99.90;;;;;;5078705;28;20055;-60
2023/08/06 02:40:09;;;;;;;13.75;9.13;;;14.50;99.90;;;;;;5078363;28;20041;-59
2023/08/06 02:42:35;;;;;;;11.82;8.32;;;14.60;99.90;;;;;;5077421;28;20049;-60
2023/08/06 02:45:01;;;;;;;11.77;7.90;;;14.50;99.90;;;;;;5079357;28;20048;-59
2023/08/06 02:47:26;;;;;;;10.98;8.55;;;14.60;99.90;;;;;;5076995;28;20100;-60
2023/08/06 02:49:52;;;;;;;11.57;8.05;;;14.60;99.90;;;;;;5078432;28;20052;-60
2023/08/06 02:52:18;;;;;;;11.23;8.57;;;14.60;99.90;;;;;;5076543;28;20040;-59
2023/08/06 02:54:44;;;;;;;13.57;8.75;;;14.60;99.90;;;;;;5078441;28;20070;-60
2023/08/06 02:57:09;;;;;;;12.93;9.32;;;14.60;99.90;;;;;;5090859;28;20064;-60
2023/08/06 02:59:35;;;;;;;13.02;9.32;;;14.50;99.90;;;;;;5097738;28;20053;-60
2023/08/06 03:02:01;;;;;;;11.68;8.70;;;14.60;99.90;;;;;;5099172;28;20047;-60
2023/08/06 03:04:26;;;;;;;14.30;9.18;;;14.50;99.90;;;;;;5078395;28;20100;-59
2023/08/06 03:06:52;;;;;;;13.85;8.98;;;14.50;99.90;;;;;;5099274;28;20044;-59
2023/08/06 03:09:18;;;;;;;13.73;9.50;;;14.60;99.90;;;;;;5096624;28;20108;-60
2023/08/06 03:11:43;;;;;;;13.57;8.70;;;14.60;99.90;;;;;;5098884;28;20528;-60
2023/08/06 03:14:09;;;;;;;12.95;8.93;;;14.60;99.90;;;;;;5097317;28;20056;-60
2023/08/06 03:16:35;;;;;;;13.10;8.95;;;14.60;99.90;;;;;;5079821;28;20647;-60
2023/08/06 03:19:01;;;;;;;14.50;9.55;;;14.50;99.90;;;;;;5098485;28;20036;-60
2023/08/06 03:21:26;;;;;;;14.85;10.40;;;14.60;99.90;;;;;;5096841;28;20058;-60
2023/08/06 03:23:52;;;;;;;12.73;9.20;;;14.50;99.90;;;;;;5098884;28;20040;-60
2023/08/06 03:26:18;;;;;;;14.38;9.60;;;14.50;99.90;;;;;;5096095;28;20040;-60
2023/08/06 03:28:44;;;;;;;14.75;9.93;;;14.50;99.90;;;;;;5098713;28;20044;-60
2023/08/06 03:31:09;;;;;;;15.07;10.02;;;14.50;99.90;;;;;;5096872;28;20036;-60
2023/08/06 03:33:35;;;;;;;18.38;10.18;;;14.50;99.90;;;;;;5098174;28;20131;-60
2023/08/06 03:36:01;;;;;;;12.55;9.77;;;14.60;99.90;;;;;;5098295;28;20058;-60
2023/08/06 03:38:27;;;;;;;14.60;10.65;;;14.60;99.90;;;;;;5096772;28;20036;-59
2023/08/06 03:40:53;;;;;;;14.45;10.32;;;14.50;99.90;;;;;;5098735;28;20039;-58
2023/08/06 03:43:19;;;;;;;15.93;10.25;;;14.60;99.90;;;;;;5096111;28;20076;-58
2023/08/06 03:45:45;;;;;;;15.63;10.40;;;14.50;99.90;;;;;;5098487;28;20044;-58
2023/08/06 03:48:11;;;;;;;15.43;10.40;;;14.50;99.90;;;;;;5096499;28;20125;-59
2023/08/06 03:50:38;;;;;;;15.75;10.45;;;14.60;99.90;;;;;;5097913;28;20028;-58
2023/08/06 03:53:03;;;;;;;14.18;10.45;;;14.50;99.90;;;;;;5097749;28;20044;-59
2023/08/06 03:55:29;;;;;;;17.58;10.55;;;14.60;99.90;;;;;;5096806;28;20108;-58
2023/08/06 03:57:55;;;;;;;15.02;10.48;;;14.50;99.90;;;;;;5079377;28;20040;-58
2023/08/06 04:00:20;;;;;;;14.88;10.13;;;14.60;99.90;;;;;;5075850;28;20124;-58
2023/08/06 04:02:46;;;;;;;15.35;10.20;;;14.60;99.90;;;;;;5078325;28;20048;-59
2023/08/06 04:05:12;;;;;;;13.75;9.90;;;14.60;99.90;;;;;;5076216;28;20049;-58
2023/08/06 04:07:37;;;;;;;15.10;10.52;;;14.50;99.90;;;;;;5077966;28;20372;-58
2023/08/06 04:10:04;;;;;;;14.40;10.23;;;14.50;99.90;;;;;;5076984;28;20041;-57
2023/08/06 04:12:31;;;;;;;14.05;10.27;;;14.50;99.90;;;;;;5058813;28;20106;-58
2023/08/06 04:15:01;;;;;;;13.63;9.43;;;14.60;99.90;;;;;;5078131;28;20036;-58
2023/08/06 04:17:26;;;;;;;13.15;9.60;;;14.60;99.90;;;;;;5075557;28;20570;-58
2023/08/06 04:19:54;;;;;;;17.17;9.98;;;14.50;99.90;;;;;;5077912;28;20029;-58
2023/08/06 04:22:21;;;;;;;13.70;10.13;;;14.60;99.90;;;;;;5075973;28;20056;-58
2023/08/06 04:24:47;;;;;;;13.05;9.43;;;14.60;99.90;;;;;;5059866;28;20044;-58
2023/08/06 04:27:14;;;;;;;14.05;9.85;;;14.60;99.90;;;;;;5076816;28;20048;-58
2023/08/06 04:29:40;;;;;;;15.57;10.25;;;14.60;99.90;;;;;;5076597;28;20048;-59
2023/08/06 04:32:08;;;;;;;16.98;10.20;;;14.60;99.90;;;;;;5077778;28;20049;-58
2023/08/06 04:34:36;;;;;;;15.65;10.90;;;14.50;99.90;;;;;;5076126;28;20048;-59
2023/08/06 04:37:03;;;;;;;15.57;10.10;;;14.60;99.90;;;;;;5078103;28;20148;-58
2023/08/06 04:39:29;;;;;;;14.18;9.90;;;14.60;99.90;;;;;;5079123;28;20068;-58
2023/08/06 04:41:57;;;;;;;15.98;10.80;;;14.60;99.90;;;;;;5080853;28;20049;-58
2023/08/06 04:44:23;;;;;;;14.65;11.05;;;14.60;99.90;;;;;;5080125;28;20098;-58
2023/08/06 04:46:49;;;;;;;14.95;10.73;;;14.60;99.90;;;;;;5080053;28;20559;-59
2023/08/06 04:49:15;;;;;;;15.25;9.82;;;14.70;99.90;;;;;;5081015;28;20094;-58
2023/08/06 04:51:40;;;;;;;15.35;10.25;;;14.70;99.90;;;;;;5079091;28;20048;-58
2023/08/06 04:54:06;;;;;;;13.73;10.02;;;14.70;99.90;;;;;;5080859;28;20058;-58
2023/08/06 04:56:32;;;;;;;14.57;10.32;;;14.70;99.90;;;;;;5086811;28;20051;-59
2023/08/06 04:58:59;;;;;;;15.88;11.38;;;14.70;99.90;;;;;;5100987;28;20044;-57
2023/08/06 05:01:25;;;;;;;14.65;10.30;;;14.70;99.90;;;;;;5082223;28;20048;-58
2023/08/06 05:03:50;;;;;;;15.15;10.20;;;14.70;99.90;;;;;;5100218;28;20422;-58
2023/08/06 05:06:16;;;;;;;15.40;10.30;;;14.70;99.90;;;;;;5100945;28;20044;-59
2023/08/06 05:08:41;;;;;;;14.63;10.75;;;14.70;99.90;;;;;;5099029;28;20040;-58
2023/08/06 05:11:07;;;;;;;15.93;10.95;;;14.80;99.90;;;;;;5101132;28;20096;-59
2023/08/06 05:13:33;;;;;;;13.80;10.25;;;14.90;99.90;;;;;;5099088;28;20403;-58
2023/08/06 05:15:58;;;;;;;15.50;9.27;;;14.90;99.90;;;;;;5100578;28;20108;-58
2023/08/06 05:18:24;;;;;;;14.70;10.10;;;15.10;99.90;;;;;;5099182;28;20036;-55
2023/08/06 05:20:50;;;;;;;13.45;10.15;;;15.10;99.90;;;;;;5081794;28;20309;-58
2023/08/06 05:23:16;;;;;;;11.90;8.82;;;15.20;99.90;;;;;;5100639;28;20087;-57
2023/08/06 05:25:42;;;;;;;13.48;9.50;;;15.30;99.90;;;;;;5098926;28;20036;-58
2023/08/06 05:28:08;;;;;;;13.95;8.40;;;15.30;99.90;;;;;;5101013;28;20077;-58
2023/08/06 05:30:33;;;;;;;14.90;9.10;;;15.30;99.90;;;;;;5098694;28;20054;-59
2023/08/06 05:32:59;;;;;;;12.25;8.07;;;15.20;99.90;;;;;;5100657;28;20044;-58
2023/08/06 05:35:25;;;;;;;11.73;8.43;;;15.30;99.90;;;;;;5099197;28;20042;-58
2023/08/06 05:37:50;;;;;;;12.45;8.65;;;15.30;99.90;;;;;;5099866;28;20040;-58
2023/08/06 05:40:16;;;;;;;14.32;9.35;;;15.30;99.90;;;;;;5081960;28;20079;-58
2023/08/06 05:42:42;;;;;;;12.68;8.32;;;15.30;99.90;;;;;;5098433;28;20062;-58
2023/08/06 05:45:08;;;;;;;14.93;9.07;;;15.30;99.90;;;;;;5100221;28;20051;-58
2023/08/06 05:47:34;;;;;;;13.77;8.88;;;15.30;99.90;;;;;;5080194;28;20048;-58
2023/08/06 05:49:59;;;;;;;13.10;8.18;;;15.30;99.90;;;;;;5099337;28;20075;-58
2023/08/06 05:52:25;;;;;;;11.55;8.20;;;15.20;99.90;;;;;;5098465;28;20040;-58
2023/08/06 05:54:51;;;;;;;13.65;8.52;;;15.20;99.90;;;;;;5099593;28;20108;-59
2023/08/06 05:57:17;;;;;;;13.80;9.30;;;15.20;99.90;;;;;;5085303;28;20053;-58
2023/08/06 05:59:43;;;;;;;12.52;8.48;;;15.20;99.90;;;;;;5060234;28;20036;-59
2023/08/06 06:02:09;;;;;;;12.48;8.73;;;15.10;99.90;;;;;;5062104;28;20040;-58
2023/08/06 06:04:34;;;;;;;13.45;8.98;;;15.00;99.90;;;;;;5077660;28;20033;-58
2023/08/06 06:07:00;;;;;;;13.45;8.75;;;15.00;99.90;;;;;;5079708;28;20047;-58
2023/08/06 06:09:26;;;;;;;14.45;8.68;;;15.10;99.90;;;;;;5077873;28;20090;-58
2023/08/06 06:11:51;;;;;;;13.30;8.75;;;15.00;99.90;;;;;;5079113;28;20051;-59
2023/08/06 06:14:18;;;;;;;16.05;8.93;;;15.10;99.90;;;;;;5078680;28;20052;-58
2023/08/06 06:16:44;;;;;;;13.57;9.50;;;15.00;99.90;;;;;;5078059;28;20484;-58
2023/08/06 06:19:09;;;;;;;17.95;8.50;;;15.10;99.90;;;;;;5079501;28;20046;-58
2023/08/06 06:21:35;;;;;;;14.45;10.10;;;15.10;99.90;;;;;;5059369;28;20119;-58
2023/08/06 06:24:01;;;;;;;13.50;9.32;;;15.20;99.90;;;;;;5079450;28;20074;-58
2023/08/06 06:26:28;;;;;;;11.65;8.82;;;15.10;99.90;;;;;;5077297;28;20052;-58
2023/08/06 06:28:53;;;;;;;13.40;8.98;;;15.30;99.90;;;;;;5044343;28;20040;-58
2023/08/06 06:31:19;;;;;;;14.35;9.45;;;15.30;99.90;;;;;;5078273;28;20363;-58
2023/08/06 06:33:45;;;;;;;12.50;8.43;;;15.30;99.90;;;;;;5078102;28;20045;-58
2023/08/06 06:36:11;;;;;;;11.75;8.35;;;15.40;99.90;;;;;;5078896;28;20075;-58
2023/08/06 06:38:37;;;;;;;13.48;8.82;;;15.40;99.90;;;;;;5059080;28;20118;-58
2023/08/06 06:41:03;;;;;;;12.18;8.57;;;15.50;99.90;;;;;;5079306;28;20103;-59
2023/08/06 06:43:29;;;;;;;12.13;8.35;;;15.60;99.90;;;;;;5076817;28;20045;-58
2023/08/06 06:46:01;;;;;;;14.68;9.73;;;15.50;99.90;;;;;;5078913;28;20052;-59
2023/08/06 06:48:28;;;;;;;13.43;8.80;;;15.70;99.90;;;;;;5077501;28;20040;-58
2023/08/06 06:50:54;;;;;;;12.15;9.00;;;15.70;99.90;;;;;;5077614;28;20052;-59
2023/08/06 06:53:20;;;;;;;14.48;8.15;;;15.70;99.90;;;;;;5078965;28;20045;-58
2023/08/06 06:55:48;;;;;;;12.68;8.70;;;15.70;99.90;;;;;;5078163;28;20082;-58
2023/08/06 06:58:16;;;;;;;12.18;8.30;;;15.80;99.90;;;;;;5099235;28;20044;-58
2023/08/06 07:00:41;;;;;;;12.38;8.15;;;15.90;99.90;;;;;;5096297;28;20100;-59
2023/08/06 07:03:07;;;;;;;12.57;7.93;;;15.90;99.90;;;;;;5098830;28;20097;-55
2023/08/06 07:05:33;;;;;;;11.93;8.15;;;16.00;99.90;;;;;;5097800;28;20039;-58
2023/08/06 07:07:58;;;;;;;10.95;7.65;;;16.10;99.90;;;;;;5097754;28;20040;-58
2023/08/06 07:10:25;;;;;;;12.13;7.63;;;16.00;99.90;;;;;;5098706;28;20074;-58
2023/08/06 07:12:51;;;;;;;11.68;7.40;;;16.10;99.90;;;;;;5096836;28;20055;-59
2023/08/06 07:15:17;;;;;;;10.82;7.57;;;16.10;99.90;;;;;;5099403;28;20044;-59
2023/08/06 07:17:43;;;;;;;10.43;7.93;;;16.20;99.90;;;;;;5096455;28;20047;-59
2023/08/06 07:20:09;;;;;;;10.30;6.85;;;16.30;99.90;;;;;;5098630;28;20048;-59
2023/08/06 07:22:35;;;;;;;10.07;6.45;;;16.40;99.90;;;;;;5097335;28;20529;-59
2023/08/06 07:25:01;;;;;;;11.80;6.55;;;16.40;99.90;;;;;;5098164;28;20146;-59
2023/08/06 07:27:27;;;;;;;10.50;7.10;;;16.60;99.90;;;;;;5080321;28;20463;-58
2023/08/06 07:29:52;;;;;;;11.50;7.43;;;16.60;99.90;;;;;;5096751;28;20419;-58
2023/08/06 07:32:18;;;;;;;9.77;6.85;;;16.70;99.90;;;;;;5098912;28;20032;-58
2023/08/06 07:34:44;;;;;;;9.82;6.07;;;16.90;99.90;;;;;;5096683;28;20070;-59
2023/08/06 07:37:09;;;;;;;10.60;6.45;;;17.00;99.90;;;;;;5098831;28;20058;-59
2023/08/06 07:39:37;;;;;;;9.85;6.75;;;17.10;99.90;;;;;;5096690;28;20063;-58
2023/08/06 07:42:05;;;;;;;10.82;6.32;;;17.20;99.90;;;;;;5097964;28;20128;-59
2023/08/06 07:44:31;;;;;;;10.15;6.68;;;17.30;99.90;;;;;;5098041;28;20052;-58
2023/08/06 07:46:57;;;;;;;8.15;5.57;;;17.50;99.90;;;;;;5096869;28;20032;-63
2023/08/06 07:49:22;;;;;;;10.65;6.07;;;17.80;99.90;;;;;;5098466;28;20044;-59
2023/08/06 07:51:48;;;;;;;8.85;5.38;;;18.20;99.90;;;;;;5096287;28;20044;-59
2023/08/06 07:54:14;;;;;;;8.23;5.15;;;18.30;99.90;;;;;;5098326;28;20036;-59
2023/08/06 07:56:39;;;;;;;8.60;4.82;;;18.60;99.90;;;;;;5087343;28;20056;-58
2023/08/06 07:59:05;;;;;;;7.63;4.45;;;18.80;99.90;;;;;;5078020;28;20083;-59
2023/08/06 08:01:31;;;;;;;10.10;4.70;;;18.80;99.90;;;;;;5077401;28;20510;-58
2023/08/06 08:03:56;;;;;;;8.38;4.97;;;18.90;99.90;;;;;;5076657;28;20458;-58
2023/08/06 08:06:23;;;;;;;8.40;5.50;;;18.90;99.90;;;;;;5078617;28;20427;-58
2023/08/06 08:08:49;;;;;;;10.40;5.50;;;19.00;99.90;;;;;;5075692;28;20082;-59
2023/08/06 08:11:15;;;;;;;8.93;5.07;;;19.10;99.90;;;;;;5078211;28;20092;-58
2023/08/06 08:13:42;;;;;;;8.18;5.53;;;19.20;99.90;;;;;;5080025;28;20052;-58
2023/08/06 08:16:07;;;;;;;8.80;5.40;;;19.20;99.90;;;;;;5081641;28;20398;-59
2023/08/06 08:18:33;;;;;;;7.65;4.57;;;19.10;99.90;;;;;;5080646;28;20041;-58
2023/08/06 08:20:59;;;;;;;8.23;4.82;;;19.10;99.90;;;;;;5080614;28;20068;-58
2023/08/06 08:23:24;;;;;;;10.05;4.93;;;19.10;99.90;;;;;;5081696;28;20040;-59
2023/08/06 08:25:50;;;;;;;8.73;4.57;;;19.10;99.90;;;;;;5079764;28;20513;-58
2023/08/06 08:28:16;;;;;;;8.15;4.70;;;19.10;99.90;;;;;;5081516;28;20052;-58
2023/08/06 08:30:42;;;;;;;7.78;4.70;;;19.00;99.90;;;;;;5079522;28;20178;-59
2023/08/06 08:33:07;;;;;;;8.52;4.72;;;19.20;99.90;;;;;;5081396;28;20040;-58
2023/08/06 08:35:34;;;;;;;7.22;4.47;;;19.10;99.90;;;;;;5080343;28;20503;-58
2023/08/06 08:37:59;;;;;;;8.52;4.53;;;18.90;99.90;;;;;;5080418;28;20068;-58
2023/08/06 08:40:32;;;;;;;6.13;3.30;;;19.10;99.90;;;;;;5063278;28;20045;-58
2023/08/06 08:42:59;;;;;;;6.40;3.67;;;19.20;99.90;;;;;;5079194;28;20041;-59
2023/08/06 08:45:28;;;;;;;6.20;3.10;;;19.20;99.90;;;;;;5081158;28;20416;-59
2023/08/06 08:47:54;;;;;;;6.25;3.38;;;19.30;99.90;;;;;;5079302;28;20481;-58
2023/08/06 08:50:21;;;;;;;8.18;4.05;;;19.30;99.90;;;;;;5080693;28;20093;-58
2023/08/06 08:52:48;;;;;;;7.88;4.05;;;19.30;99.90;;;;;;5080175;28;20041;-58
2023/08/06 08:55:16;;;;;;;7.90;3.78;;;19.40;99.90;;;;;;5080044;28;20396;-59
2023/08/06 08:57:42;;;;;;;7.70;3.90;;;19.50;99.90;;;;;;5080496;28;20048;-58
2023/08/06 09:00:08;;;;;;;7.55;3.80;;;19.60;99.90;;;;;;5099290;28;20467;-58
2023/08/06 09:02:34;;;;;;;6.97;3.63;;;19.60;99.90;;;;;;5101270;28;20408;-59
2023/08/06 09:05:04;;;;;;;7.57;3.58;;;19.70;99.90;;;;;;5099272;28;20041;-58
2023/08/06 09:07:35;;;;;;;7.38;3.85;;;19.70;99.90;;;;;;5100851;28;20055;-60
2023/08/06 09:10:06;;;;;;;8.82;3.70;;;19.70;99.90;;;;;;5082165;28;20051;-58
2023/08/06 09:12:31;;;;;;;6.18;3.33;;;19.60;99.90;;;;;;5099534;28;20063;-59
2023/08/06 09:14:58;;;;;;;6.65;3.20;;;19.70;99.90;;;;;;5101206;28;20044;-59
2023/08/06 09:17:23;;;;;;;5.32;2.60;;;19.70;99.90;;;;;;5098956;28;20044;-59
2023/08/06 09:19:49;;;;;;;4.95;2.22;;;19.80;99.90;;;;;;5082375;28;20083;-59
2023/08/06 09:22:15;;;;;;;6.22;2.30;;;19.90;99.90;;;;;;5099253;28;20439;-56
2023/08/06 09:24:42;;;;;;;5.05;2.20;;;19.90;99.90;;;;;;5080930;28;20044;-58
2023/08/06 09:27:13;;;;;;;5.20;1.90;;;19.80;99.90;;;;;;5100187;28;20119;-58
2023/08/06 09:29:43;;;;;;;5.50;2.05;;;19.90;99.90;;;;;;5099009;28;20126;-59
2023/08/06 09:32:09;;;;;;;4.78;1.90;;;19.90;99.90;;;;;;5100940;28;20040;-59
2023/08/06 09:34:35;;;;;;;6.32;2.17;;;19.90;99.90;;;;;;5098469;28;20058;-59
2023/08/06 09:37:00;;;;;;;4.05;1.80;;;20.00;99.90;;;;;;5100686;28;20040;-59
2023/08/06 09:39:30;;;;;;;7.60;2.10;;;20.10;99.90;;;;;;5098892;28;20059;-59
2023/08/06 09:42:01;;;;;;;6.18;2.00;;;20.10;99.90;;;;;;5099709;28;20067;-59
2023/08/06 09:44:29;;;;;;;5.65;2.40;;;20.10;99.90;;;;;;5099938;28;20448;-59
2023/08/06 09:47:00;;;;;;;5.25;2.30;;;20.40;99.90;;;;;;5080285;28;20052;-58
2023/08/06 09:49:33;;;;;;;5.95;2.10;;;20.50;99.90;;;;;;5100036;28;20055;-59
2023/08/06 09:52:00;;;;;;;5.85;2.63;;;20.60;99.90;;;;;;5098307;28;20044;-59
2023/08/06 09:54:30;;;;;;;5.40;2.80;;;20.90;99.90;;;;;;5099816;28;20044;-59
2023/08/06 09:56:56;;;;;;;7.00;2.75;;;20.70;99.90;;;;;;5087764;28;20550;-59
2023/08/06 09:59:26;;;;;;;5.82;2.28;;;20.90;99.90;;;;;;5060961;28;20078;-59
2023/08/06 10:01:55;;;;;;;8.15;2.60;;;20.80;99.90;;;;;;5080211;28;20174;-59
2023/08/06 10:04:20;;;;;;;5.28;2.47;;;20.80;99.90;;;;;;5077656;28;20116;-58
2023/08/06 10:06:50;;;;;;;6.50;2.50;;;20.70;99.90;;;;;;5079792;28;20044;-59
2023/08/06 10:09:16;;;;;;;6.43;2.42;;;20.80;99.90;;;;;;5077925;28;20036;-57
2023/08/06 10:11:50;;;;;;;5.53;2.45;;;20.90;99.90;;;;;;5079156;28;20071;-60
2023/08/06 10:14:32;;;;;;;5.97;2.25;;;20.90;97.90;;;;;;5079158;28;20045;-59
2023/08/06 10:16:59;;;;;;;4.93;2.03;;;20.90;99.40;;;;;;5077529;28;20047;-59
2023/08/06 10:19:26;;;;;;;5.30;2.28;;;20.80;99.90;;;;;;5079586;28;20032;-59
2023/08/06 10:22:23;;;;;;;5.93;2.03;;;20.80;99.80;;;;;;5077189;28;20048;-59
2023/08/06 10:24:58;;;;;;;4.35;2.03;;;20.70;94.70;;;;;;5058068;28;20052;-59
2023/08/06 10:27:40;;;;;;;5.30;1.90;;;20.90;96.20;;;;;;5079337;28;20053;-59
2023/08/06 10:30:25;;;;;;;4.32;1.83;;;20.80;94.00;;;;;;5077121;28;20048;-60
2023/08/06 10:33:01;;;;;;;4.28;2.00;;;21.00;97.50;;;;;;5079108;28;20123;-59
2023/08/06 10:35:50;;;;;;;5.70;2.10;;;21.10;96.60;;;;;;5078017;28;20062;-59
2023/08/06 10:38:18;;;;;;;7.40;1.88;;;21.10;90.70;;;;;;5077275;28;20049;-59
2023/08/06 10:40:53;;;;;;;7.30;1.70;;;21.10;96.10;;;;;;5079446;28;20041;-60
2023/08/06 10:43:48;;;;;;;5.93;2.10;;;21.10;79.40;;;;;;5076889;28;20052;-59
2023/08/06 10:46:29;;;;;;;5.88;1.98;;;21.20;84.90;;;;;;5057062;28;20065;-59
2023/08/06 10:48:54;;;;;;;4.50;1.73;;;21.20;86.80;;;;;;5060866;28;20372;-58
2023/08/06 10:51:20;;;;;;;6.15;1.83;;;21.20;91.00;;;;;;5076540;28;20047;-59
2023/08/06 10:53:47;;;;;;;4.72;1.80;;;21.00;76.60;;;;;;5079269;28;20044;-59
2023/08/06 10:56:16;;;;;;;5.60;2.00;;;21.30;89.10;;;;;;5081849;28;20028;-59
2023/08/06 10:58:43;;;;;;;4.65;1.80;;;21.20;86.30;;;;;;5099116;28;20036;-59
2023/08/06 11:01:10;;;;;;;4.55;1.77;;;21.20;85.00;;;;;;5097638;28;20058;-59
2023/08/06 11:03:37;;;;;;;7.13;1.88;;;21.40;80.20;;;;;;5098058;28;20048;-59
2023/08/06 11:06:02;;;;;;;3.55;1.60;;;21.50;87.00;;;;;;5099238;28;20048;-58
2023/08/06 11:08:33;;;;;;;5.47;2.15;;;21.60;85.70;;;;;;5096949;28;20077;-58
2023/08/06 11:11:12;;;;;;;4.97;2.25;;;21.50;72.50;;;;;;5099051;28;20064;-59
2023/08/06 11:13:39;;;;;;;5.55;1.88;;;21.60;75.70;;;;;;5097240;28;20047;-59
2023/08/06 11:16:05;;;;;;;6.25;2.38;;;21.50;84.00;;;;;;5098434;28;20048;-59
2023/08/06 11:18:35;;;;;;;4.70;1.85;;;21.70;74.90;;;;;;5097731;28;20044;-59
2023/08/06 11:21:01;;;;;;;5.80;2.13;;;21.80;78.50;;;;;;5097104;28;20050;-59
2023/08/06 11:23:28;;;;;;;5.60;2.10;;;21.80;77.70;;;;;;5099164;28;20044;-59
2023/08/06 11:25:55;;;;;;;4.53;1.60;;;21.60;80.70;;;;;;5096455;28;20044;-59
2023/08/06 11:28:23;;;;;;;3.92;1.60;;;21.90;84.30;;;;;;5098813;28;20084;-59
2023/08/06 11:30:50;;;;;;;5.07;1.75;;;21.70;76.60;;;;;;5096607;28;20040;-59
2023/08/06 11:33:25;;;;;;;5.07;1.92;;;21.70;76.10;;;;;;5098484;28;20036;-59
2023/08/06 11:35:51;;;;;;;4.53;1.80;;;21.50;74.30;;;;;;5098092;28;20530;-58
2023/08/06 11:38:18;;;;;;;4.28;1.60;;;21.50;80.20;;;;;;5096893;28;20055;-59
2023/08/06 11:40:47;;;;;;;4.82;1.85;;;21.50;82.80;;;;;;5098822;28;20052;-59
2023/08/06 11:43:13;;;;;;;6.38;2.17;;;21.60;79.80;;;;;;5096204;28;20055;-59
2023/08/06 11:45:39;;;;;;;4.55;1.85;;;21.40;76.00;;;;;;5098640;28;20106;-59
2023/08/06 11:48:06;;;;;;;5.57;1.80;;;21.60;83.50;;;;;;5099751;28;20116;-59
2023/08/06 11:50:37;;;;;;;5.65;2.25;;;21.40;80.10;;;;;;5083904;28;20071;-60
2023/08/06 11:53:03;;;;;;;5.43;1.85;;;21.20;82.60;;;;;;5102543;28;20097;-58
2023/08/06 11:55:29;;;;;;;5.32;2.03;;;21.20;82.30;;;;;;5100912;28;20048;-59
2023/08/06 11:57:55;;;;;;;6.00;1.90;;;21.30;85.10;;;;;;5082545;28;20043;-59
2023/08/06 12:00:24;;;;;;;6.68;2.25;;;21.30;87.50;;;;;;5080036;28;20091;-59
2023/08/06 12:02:52;;;;;;;5.50;2.10;;;21.40;81.30;;;;;;5081805;28;20866;-60
2023/08/06 12:05:23;;;;;;;5.53;1.85;;;21.30;80.50;;;;;;5080211;28;20078;-59
2023/08/06 12:07:51;;;;;;;5.15;2.05;;;21.20;80.70;;;;;;5080876;28;20131;-59
2023/08/06 12:10:19;;;;;;;5.07;2.10;;;21.30;84.90;;;;;;5081577;28;20048;-59
2023/08/06 12:12:45;;;;;;;5.93;2.00;;;21.30;80.30;;;;;;5080075;28;20052;-59
2023/08/06 12:15:11;;;;;;;4.68;1.77;;;21.20;81.10;;;;;;5081833;28;20041;-59
2023/08/06 12:17:37;;;;;;;5.68;2.03;;;21.10;75.50;;;;;;5079934;28;20131;-59
2023/08/06 12:20:04;;;;;;;6.38;2.10;;;21.10;81.20;;;;;;5081566;28;20119;-59
2023/08/06 12:22:37;;;;;;;5.40;2.05;;;21.00;75.70;;;;;;5080289;28;20044;-58
2023/08/06 12:25:12;;;;;;;4.30;1.73;;;21.00;78.20;;;;;;5080762;28;20045;-59
2023/08/06 12:27:39;;;;;;;5.40;1.70;;;21.00;73.90;;;;;;5081727;28;20036;-58
2023/08/06 12:30:06;;;;;;;5.50;2.10;;;21.10;76.20;;;;;;5079505;28;20053;-59
2023/08/06 12:32:33;;;;;;;4.93;1.90;;;21.20;71.80;;;;;;5081502;28;20076;-59
2023/08/06 12:34:58;;;;;;;7.72;2.00;;;21.10;79.20;;;;;;5079724;28;20044;-58
2023/08/06 12:37:25;;;;;;;4.70;1.55;;;21.30;76.40;;;;;;5080944;28;20050;-59
2023/08/06 12:39:51;;;;;;;4.70;1.83;;;21.10;72.40;;;;;;5080490;28;20110;-58